createdAt,value
2018-04-28T08:07:51.138Z,61.72
2018-04-28T08:10:18.747Z,52.88
2018-04-28T15:36:12.629Z,40.80
2018-04-28T15:38:40.256Z,40.70
2018-04-28T15:41:07.803Z,40.75
2018-04-28T15:43:35.504Z,40.99
2018-04-28T15:46:03.735Z,41.58
2018-04-28T15:48:31.407Z,41.74
2018-04-28T15:50:59.089Z,41.24
2018-04-28T15:53:27.004Z,41.89
2018-04-28T15:55:54.534Z,41.41
2018-04-28T15:58:22.280Z,42.04
2018-04-28T16:00:50.085Z,42.04
2018-04-28T16:03:17.653Z,41.76
2018-04-28T16:05:45.341Z,41.86
2018-04-28T16:08:12.955Z,41.73
2018-04-28T16:10:40.858Z,41.67
2018-04-28T16:13:08.451Z,41.92
2018-04-28T16:15:36.191Z,42.08
2018-04-28T16:18:03.731Z,42.88
2018-04-28T16:20:31.545Z,43.14
2018-04-28T16:22:59.061Z,43.61
2018-04-28T16:25:26.668Z,44.07
2018-04-28T16:27:54.285Z,44.45
2018-04-28T16:30:21.941Z,44.50
2018-04-28T16:32:49.669Z,44.60
2018-04-28T16:35:18.248Z,45.30
2018-04-28T16:37:45.814Z,45.69
2018-04-28T16:40:13.927Z,46.29
2018-04-28T16:42:41.550Z,46.59
2018-04-28T16:45:09.265Z,47.28
2018-04-28T16:47:36.833Z,47.32
2018-04-28T16:50:04.427Z,47.81
2018-04-28T16:52:32.144Z,47.23
2018-04-28T16:54:59.896Z,47.58
2018-04-28T16:57:27.507Z,48.16
2018-04-28T16:59:55.166Z,48.15
2018-04-28T17:02:23.542Z,49.30
2018-04-28T17:04:51.125Z,49.00
2018-04-28T17:07:18.826Z,49.27
2018-04-28T17:09:46.477Z,49.99
2018-04-28T17:12:14.061Z,50.02
2018-04-28T17:14:41.619Z,50.20
2018-04-28T17:17:09.555Z,50.97
2018-04-28T17:19:37.135Z,51.01
2018-04-28T17:22:04.840Z,51.66
2018-04-28T17:24:32.497Z,52.24
2018-04-28T17:27:00.184Z,52.17
2018-04-28T17:29:28.091Z,52.17
2018-04-28T17:31:55.725Z,52.57
2018-04-28T17:34:23.517Z,52.84
2018-04-28T17:36:51.869Z,52.80
2018-04-28T17:39:19.585Z,52.88
2018-04-28T17:41:47.170Z,52.95
2018-04-28T17:44:14.751Z,53.36
2018-04-28T17:46:43.425Z,53.64
2018-04-28T17:49:10.977Z,54.65
2018-04-28T17:51:38.601Z,54.02
2018-04-28T17:54:06.205Z,54.23
2018-04-28T17:56:34.005Z,54.61
2018-04-28T17:59:02.350Z,55.03
2018-04-28T18:01:30.116Z,55.11
2018-04-28T18:03:57.647Z,55.31
2018-04-28T18:06:25.338Z,55.37
2018-04-28T18:08:52.918Z,57.31
2018-04-28T18:11:20.601Z,57.11
2018-04-28T18:13:48.122Z,58.50
2018-04-28T18:16:15.790Z,58.19
2018-04-28T18:18:43.841Z,59.31
2018-04-28T18:21:11.464Z,59.50
2018-04-28T18:23:39.170Z,58.33
2018-04-28T18:26:06.833Z,60.10
2018-04-28T18:28:34.358Z,60.84
2018-04-28T18:31:01.925Z,61.98
2018-04-28T18:33:29.820Z,62.35
2018-04-28T18:35:57.360Z,62.77
2018-04-28T18:38:25.022Z,63.15
2018-04-28T18:40:52.706Z,63.53
2018-04-28T18:43:20.250Z,63.68
2018-04-28T18:45:47.983Z,65.21
2018-04-28T18:48:15.541Z,65.04
2018-04-28T18:50:43.180Z,66.04
2018-04-28T18:53:10.796Z,64.98
2018-04-28T18:55:38.350Z,65.21
2018-04-28T18:58:05.910Z,65.34
2018-04-28T19:00:33.780Z,64.92
2018-04-28T19:03:01.317Z,66.63
2018-04-28T19:05:28.922Z,66.55
2018-04-28T19:07:56.583Z,65.85
2018-04-28T19:10:23.685Z,65.14
2018-04-28T19:12:50.895Z,64.81
2018-04-28T19:15:18.186Z,65.41
2018-04-28T19:17:45.794Z,64.87
2018-04-28T19:20:13.044Z,65.61
2018-04-28T19:22:40.587Z,65.80
2018-04-28T19:25:08.281Z,66.09
2018-04-28T19:27:35.532Z,65.84
2018-04-28T19:30:03.296Z,67.66
2018-04-28T19:32:30.470Z,67.49
2018-04-28T19:34:57.611Z,68.18
2018-04-28T19:37:24.733Z,67.55
2018-04-28T19:39:51.921Z,67.79
2018-04-28T19:42:19.062Z,68.25
2018-04-28T19:44:46.187Z,68.37
2018-04-28T19:47:13.280Z,69.41
2018-04-28T19:49:40.995Z,70.03
2018-04-28T19:52:08.108Z,69.23
2018-04-28T19:54:35.905Z,69.48
2018-04-28T19:57:02.981Z,69.27
2018-04-28T19:59:30.543Z,69.14
2018-04-28T20:01:58.162Z,70.24
2018-04-28T20:04:25.861Z,68.49
2018-04-28T20:06:53.587Z,69.49
2018-04-28T20:09:21.319Z,69.88
2018-04-28T20:11:48.911Z,72.00
2018-04-28T20:14:16.471Z,71.55
2018-04-28T20:16:44.141Z,71.00
2018-04-28T20:19:11.867Z,70.50
2018-04-28T20:21:39.470Z,72.10
2018-04-28T20:27:07.562Z,71.73
2018-04-28T20:29:35.212Z,70.53
2018-04-28T20:32:02.902Z,71.12
2018-04-28T20:34:30.746Z,71.66
2018-04-28T20:36:58.318Z,71.39
2018-04-28T20:39:25.860Z,71.63
2018-04-28T20:41:53.452Z,72.30
2018-04-28T20:44:21.025Z,71.87
2018-04-28T20:46:48.571Z,71.94
2018-04-28T20:49:16.172Z,71.16
2018-04-28T20:51:43.734Z,70.01
2018-04-28T20:54:11.269Z,69.59
2018-04-28T20:56:38.853Z,70.01
2018-04-28T20:59:06.407Z,70.30
2018-04-28T21:01:34.227Z,69.55
2018-04-28T21:04:01.959Z,69.20
2018-04-28T21:06:29.633Z,68.58
2018-04-28T21:08:57.243Z,68.77
2018-04-28T21:11:24.863Z,69.37
2018-04-28T21:13:52.403Z,70.26
2018-04-28T21:16:19.962Z,70.77
2018-04-28T21:18:47.671Z,70.54
2018-04-28T21:21:15.207Z,70.36
2018-04-28T21:23:43.650Z,70.15
2018-04-28T21:26:11.380Z,70.69
2018-04-28T21:28:39.048Z,71.57
2018-04-28T21:31:07.006Z,72.08
2018-04-28T21:33:34.303Z,72.41
2018-04-28T21:36:01.392Z,72.02
2018-04-28T21:38:28.922Z,72.73
2018-04-28T21:40:56.082Z,72.48
2018-04-28T21:43:23.161Z,69.77
2018-04-28T21:45:50.364Z,68.64
2018-04-28T21:48:17.516Z,65.60
2018-04-28T21:50:44.607Z,63.07
2018-04-28T21:53:12.312Z,61.77
2018-04-28T21:55:39.552Z,58.53
2018-04-28T21:58:06.646Z,57.64
2018-04-28T22:00:33.976Z,57.58
2018-04-28T22:03:01.110Z,56.61
2018-04-28T22:05:28.338Z,56.41
2018-04-28T22:07:55.418Z,55.99
2018-04-28T22:10:22.536Z,55.92
2018-04-28T22:12:49.768Z,55.71
2018-04-28T22:15:16.947Z,55.64
2018-04-28T22:17:44.422Z,56.15
2018-04-28T22:20:12.037Z,56.13
2018-04-28T22:22:39.154Z,56.11
2018-04-28T22:25:06.841Z,55.98
2018-04-28T22:27:35.203Z,56.57
2018-04-28T22:30:02.363Z,56.47
2018-04-28T22:32:29.457Z,56.67
2018-04-28T22:34:56.544Z,57.09
2018-04-28T22:37:24.518Z,56.84
2018-04-28T22:39:51.602Z,57.15
2018-04-28T22:42:18.682Z,57.71
2018-04-28T22:44:45.773Z,58.22
2018-04-28T22:47:12.861Z,57.81
2018-04-28T22:49:40.066Z,58.23
2018-04-28T22:52:07.247Z,58.34
2018-04-28T22:54:34.361Z,59.08
2018-04-28T22:57:01.457Z,59.60
2018-04-28T22:59:28.771Z,60.90
2018-04-28T23:01:55.814Z,59.48
2018-04-28T23:04:23.089Z,59.17
2018-04-28T23:06:50.354Z,59.07
2018-04-28T23:09:17.977Z,58.70
2018-04-28T23:11:46.081Z,58.07
2018-04-28T23:14:13.798Z,58.37
2018-04-28T23:16:41.056Z,57.78
2018-04-28T23:19:08.848Z,58.02
2018-04-28T23:21:36.381Z,57.72
2018-04-28T23:24:03.635Z,57.83
2018-04-28T23:26:30.808Z,57.46
2018-04-28T23:28:57.934Z,57.00
2018-04-28T23:31:25.161Z,57.22
2018-04-28T23:33:52.411Z,57.34
2018-04-28T23:36:19.500Z,57.30
2018-04-28T23:38:46.620Z,57.38
2018-04-28T23:41:13.769Z,57.54
2018-04-28T23:43:40.826Z,57.81
2018-04-28T23:46:07.909Z,57.95
2018-04-28T23:48:35.026Z,58.22
2018-04-28T23:51:02.145Z,58.68
2018-04-28T23:53:29.246Z,58.47
2018-04-28T23:55:56.382Z,58.50
2018-04-28T23:58:23.488Z,59.03
